createdAt,value
2018-07-12T00:00:19.317Z,1014.07
2018-07-12T00:01:19.305Z,1014.01
2018-07-12T00:02:19.273Z,1014.07
2018-07-12T00:03:19.268Z,1014.00
2018-07-12T00:04:19.312Z,1014.03
2018-07-12T00:05:19.257Z,1014.05
2018-07-12T00:06:19.242Z,1014.04
2018-07-12T00:07:19.217Z,1014.07
2018-07-12T00:08:19.217Z,1014.08
2018-07-12T00:09:19.214Z,1014.03
2018-07-12T00:10:19.205Z,1014.06
2018-07-12T00:11:19.161Z,1014.07
2018-07-12T00:12:19.144Z,1014.09
2018-07-12T00:13:19.141Z,1014.09
2018-07-12T00:14:19.131Z,1014.11
2018-07-12T00:15:19.138Z,1014.10
2018-07-12T00:16:19.101Z,1014.15
2018-07-12T00:17:19.087Z,1014.12
2018-07-12T00:18:19.104Z,1014.14
2018-07-12T00:19:19.057Z,1014.17
2018-07-12T00:20:19.050Z,1014.18
2018-07-12T00:21:19.050Z,1014.20
2018-07-12T00:22:19.029Z,1014.21
2018-07-12T00:23:19.012Z,1014.22
2018-07-12T00:24:18.995Z,1014.21
2018-07-12T00:25:19.003Z,1014.21
2018-07-12T00:26:18.977Z,1014.19
2018-07-12T00:27:18.967Z,1014.21
2018-07-12T00:28:18.946Z,1014.19
2018-07-12T00:29:18.933Z,1014.18
2018-07-12T00:30:18.935Z,1014.19
2018-07-12T00:31:18.917Z,1014.16
2018-07-12T00:32:18.898Z,1014.14
2018-07-12T00:33:18.885Z,1014.12
2018-07-12T00:34:18.870Z,1014.17
2018-07-12T00:35:18.856Z,1014.16
2018-07-12T00:36:18.863Z,1014.19
2018-07-12T00:37:18.846Z,1014.16
2018-07-12T00:38:18.824Z,1014.17
2018-07-12T00:39:18.808Z,1014.19
2018-07-12T00:40:18.797Z,1014.20
2018-07-12T00:41:18.805Z,1014.18
2018-07-12T00:42:18.787Z,1014.17
2018-07-12T00:43:18.759Z,1014.18
2018-07-12T00:44:18.749Z,1014.20
2018-07-12T00:45:18.731Z,1014.14
2018-07-12T00:46:18.735Z,1014.17
2018-07-12T00:47:18.731Z,1014.18
2018-07-12T00:48:18.694Z,1014.19
2018-07-12T00:49:18.679Z,1014.17
2018-07-12T00:50:18.669Z,1014.17
2018-07-12T00:51:18.666Z,1014.12
2018-07-12T00:52:18.646Z,1014.11
2018-07-12T00:53:18.629Z,1014.13
2018-07-12T00:54:18.615Z,1014.15
2018-07-12T00:55:18.600Z,1014.11
2018-07-12T00:56:18.607Z,1014.12
2018-07-12T00:57:18.582Z,1014.14
2018-07-12T00:58:18.575Z,1014.18
2018-07-12T00:59:18.551Z,1014.18
2018-07-12T01:00:18.544Z,1014.17
2018-07-12T01:01:18.538Z,1014.17
2018-07-12T01:02:18.514Z,1014.19
2018-07-12T01:03:18.533Z,1014.14
2018-07-12T01:04:18.490Z,1014.16
2018-07-12T01:05:18.476Z,1014.14
2018-07-12T01:06:18.466Z,1014.13
2018-07-12T01:07:18.449Z,1014.13
2018-07-12T01:08:18.449Z,1014.12
2018-07-12T01:09:18.442Z,1014.09
2018-07-12T01:10:18.427Z,1014.12
2018-07-12T01:11:18.402Z,1014.10
2018-07-12T01:12:18.388Z,1014.12
2018-07-12T01:13:18.382Z,1014.12
2018-07-12T01:14:18.356Z,1014.11
2018-07-12T01:15:18.380Z,1014.13
2018-07-12T01:16:18.335Z,1014.13
2018-07-12T01:17:18.322Z,1014.13
2018-07-12T01:18:18.320Z,1014.13
2018-07-12T01:19:18.303Z,1014.11
2018-07-12T01:20:18.283Z,1014.07
2018-07-12T01:21:18.300Z,1014.07
2018-07-12T01:22:18.260Z,1014.03
2018-07-12T01:23:18.256Z,1014.10
2018-07-12T01:24:18.231Z,1014.06
2018-07-12T01:25:18.226Z,1014.11
2018-07-12T01:26:39.227Z,1014.09
2018-07-12T01:27:18.194Z,1014.10
2018-07-12T01:28:18.199Z,1014.11
2018-07-12T01:29:19.018Z,1014.10
2018-07-12T01:30:18.160Z,1014.08
2018-07-12T01:31:18.162Z,1014.10
2018-07-12T01:32:18.133Z,1014.11
2018-07-12T01:33:18.129Z,1014.09
2018-07-12T01:34:18.106Z,1014.06
2018-07-12T01:35:18.102Z,1014.03
2018-07-12T01:36:18.098Z,1014.07
2018-07-12T01:37:18.086Z,1014.04
2018-07-12T01:38:18.058Z,1014.01
2018-07-12T01:39:18.040Z,1013.99
2018-07-12T01:40:18.033Z,1013.96
2018-07-12T01:41:18.037Z,1014.00
2018-07-12T01:42:18.008Z,1013.96
2018-07-12T01:43:18.017Z,1014.00
2018-07-12T01:44:17.982Z,1013.99
2018-07-12T01:45:17.970Z,1013.96
2018-07-12T01:46:17.954Z,1013.98
2018-07-12T01:47:17.959Z,1013.94
2018-07-12T01:48:17.961Z,1013.97
2018-07-12T01:49:17.918Z,1013.99
2018-07-12T01:50:17.900Z,1013.96
2018-07-12T01:51:17.896Z,1013.99
2018-07-12T01:52:17.879Z,1013.95
2018-07-12T01:53:17.870Z,1013.99
2018-07-12T01:54:17.880Z,1014.00
2018-07-12T01:55:17.841Z,1013.98
2018-07-12T01:56:17.830Z,1013.98
2018-07-12T01:57:17.819Z,1013.97
2018-07-12T01:58:17.797Z,1013.98
2018-07-12T01:59:17.789Z,1013.95
2018-07-12T02:00:17.788Z,1013.94
2018-07-12T02:01:17.765Z,1013.93
2018-07-12T02:02:17.755Z,1013.93
2018-07-12T02:03:17.733Z,1013.97
2018-07-12T02:04:17.729Z,1013.94
2018-07-12T02:05:17.729Z,1013.98
2018-07-12T02:06:17.695Z,1013.94
2018-07-12T02:07:17.687Z,1013.97
2018-07-12T02:08:17.670Z,1013.97
2018-07-12T02:09:17.662Z,1013.97
2018-07-12T02:10:17.664Z,1013.99
2018-07-12T02:11:17.640Z,1013.98
2018-07-12T02:12:17.623Z,1014.00
2018-07-12T02:13:17.611Z,1013.99
2018-07-12T02:14:17.602Z,1014.02
2018-07-12T02:15:17.601Z,1013.97
2018-07-12T02:16:17.574Z,1013.98
2018-07-12T02:17:17.560Z,1013.96
2018-07-12T02:18:17.547Z,1014.02
2018-07-12T02:19:17.533Z,1013.94
2018-07-12T02:20:17.534Z,1013.99
2018-07-12T02:21:17.510Z,1013.97
2018-07-12T02:22:17.490Z,1013.99
2018-07-12T02:23:17.490Z,1013.96
2018-07-12T02:24:17.486Z,1013.95
2018-07-12T02:25:17.475Z,1013.95
2018-07-12T02:26:17.439Z,1013.95
2018-07-12T02:27:17.430Z,1013.94
2018-07-12T02:28:17.417Z,1013.94
2018-07-12T02:29:17.413Z,1013.94
2018-07-12T02:30:17.391Z,1013.96
2018-07-12T02:31:17.412Z,1013.95
2018-07-12T02:32:17.372Z,1013.96
2018-07-12T02:33:17.356Z,1014.00
2018-07-12T02:34:17.345Z,1014.00
2018-07-12T02:35:17.405Z,1013.97
2018-07-12T02:36:17.321Z,1014.00
2018-07-12T02:37:17.322Z,1013.98
2018-07-12T02:38:17.288Z,1013.99
2018-07-12T02:39:17.286Z,1014.00
2018-07-12T02:40:17.279Z,1013.95
2018-07-12T02:41:17.276Z,1013.97
2018-07-12T02:42:17.234Z,1013.95
2018-07-12T02:43:17.219Z,1013.94
2018-07-12T02:44:17.206Z,1013.93
2018-07-12T02:45:17.204Z,1013.93
2018-07-12T02:46:17.185Z,1013.92
2018-07-12T02:47:17.181Z,1013.92
2018-07-12T02:48:17.162Z,1013.92
2018-07-12T02:49:17.145Z,1013.92
2018-07-12T02:50:17.133Z,1013.93
2018-07-12T02:51:17.121Z,1013.91
2018-07-12T02:52:17.106Z,1013.85
2018-07-12T02:53:17.111Z,1013.86
2018-07-12T02:54:17.089Z,1013.84
2018-07-12T02:55:17.068Z,1013.86
2018-07-12T02:56:17.050Z,1013.87
2018-07-12T02:57:17.061Z,1013.88
2018-07-12T02:58:38.045Z,1013.87
2018-07-12T02:59:17.015Z,1013.87
2018-07-12T03:00:17.002Z,1013.93
2018-07-12T03:01:16.992Z,1013.92
2018-07-12T03:02:16.981Z,1013.94
2018-07-12T03:03:16.992Z,1013.94
2018-07-12T03:04:16.948Z,1013.99
2018-07-12T03:05:16.947Z,1013.98
2018-07-12T03:06:16.922Z,1014.00
2018-07-12T03:07:16.916Z,1014.00
2018-07-12T03:08:16.900Z,1014.00
2018-07-12T03:09:37.908Z,1014.01
2018-07-12T03:10:16.877Z,1013.99
2018-07-12T03:11:16.854Z,1014.00
2018-07-12T03:12:16.840Z,1013.99
2018-07-12T03:13:16.830Z,1014.01
2018-07-12T03:14:37.833Z,1014.00
2018-07-12T03:15:16.802Z,1014.00
2018-07-12T03:16:16.802Z,1013.99
2018-07-12T03:17:16.776Z,1014.02
2018-07-12T03:18:16.758Z,1014.01
2018-07-12T03:19:16.747Z,1013.97
2018-07-12T03:20:37.769Z,1014.04
2018-07-12T03:21:16.721Z,1014.01
2018-07-12T03:22:16.719Z,1013.99
2018-07-12T03:23:16.691Z,1014.05
2018-07-12T03:24:16.684Z,1014.03
2018-07-12T03:25:16.687Z,1014.01
2018-07-12T03:26:16.685Z,1014.05
2018-07-12T03:27:16.641Z,1014.04
2018-07-12T03:28:16.648Z,1014.03
2018-07-12T03:29:16.624Z,1014.07
2018-07-12T03:30:16.621Z,1014.04
2018-07-12T03:31:16.592Z,1014.04
2018-07-12T03:32:16.572Z,1014.02
2018-07-12T03:33:16.573Z,1014.06
2018-07-12T03:34:16.547Z,1014.00
2018-07-12T03:35:16.548Z,1014.00
2018-07-12T03:36:16.527Z,1014.00
2018-07-12T03:37:16.541Z,1014.04
2018-07-12T03:38:16.493Z,1014.06
2018-07-12T03:39:16.480Z,1014.07
2018-07-12T03:40:16.467Z,1014.03
2018-07-12T03:41:16.464Z,1014.09
2018-07-12T03:42:16.436Z,1014.06
2018-07-12T03:43:16.447Z,1014.11
2018-07-12T03:44:16.416Z,1014.13
2018-07-12T03:45:16.413Z,1014.06
2018-07-12T03:46:16.390Z,1014.10
2018-07-12T03:47:16.409Z,1014.06
2018-07-12T03:48:16.372Z,1014.09
2018-07-12T03:49:16.349Z,1014.05
2018-07-12T03:50:16.349Z,1014.07
2018-07-12T03:51:16.316Z,1014.08
2018-07-12T03:52:16.302Z,1014.12
2018-07-12T03:53:16.307Z,1014.08
2018-07-12T03:54:16.300Z,1014.10
2018-07-12T03:55:16.265Z,1014.12
2018-07-12T03:56:16.276Z,1014.15
2018-07-12T03:57:16.242Z,1014.13
2018-07-12T03:58:16.221Z,1014.18
2018-07-12T03:59:16.209Z,1014.20
2018-07-12T04:00:16.219Z,1014.17
2018-07-12T04:01:16.212Z,1014.19
2018-07-12T04:02:16.181Z,1014.17
2018-07-12T04:03:16.161Z,1014.24
2018-07-12T04:04:16.142Z,1014.21
2018-07-12T04:05:16.138Z,1014.24
2018-07-12T04:06:16.131Z,1014.27
2018-07-12T04:07:16.103Z,1014.29
2018-07-12T04:08:16.114Z,1014.32
2018-07-12T04:09:16.093Z,1014.28
2018-07-12T04:10:16.063Z,1014.28
2018-07-12T04:11:16.046Z,1014.29
2018-07-12T04:12:16.037Z,1014.32
2018-07-12T04:13:16.023Z,1014.32
2018-07-12T04:14:16.041Z,1014.33
2018-07-12T04:15:15.996Z,1014.32
2018-07-12T04:16:15.981Z,1014.32
2018-07-12T04:17:15.963Z,1014.33
2018-07-12T04:18:15.948Z,1014.33
2018-07-12T04:19:15.943Z,1014.34
2018-07-12T04:20:15.949Z,1014.35
2018-07-12T04:21:15.916Z,1014.34
2018-07-12T04:22:15.923Z,1014.33
2018-07-12T04:23:15.893Z,1014.34
2018-07-12T04:24:15.886Z,1014.33
2018-07-12T04:25:15.857Z,1014.32
2018-07-12T04:26:15.846Z,1014.32
2018-07-12T04:27:16.561Z,1014.37
2018-07-12T04:28:15.822Z,1014.34
2018-07-12T04:29:15.842Z,1014.31
2018-07-12T04:30:15.800Z,1014.35
2018-07-12T04:31:15.780Z,1014.35
2018-07-12T04:32:15.762Z,1014.29
2018-07-12T04:33:15.772Z,1014.33
2018-07-12T04:34:15.772Z,1014.33
2018-07-12T04:35:15.765Z,1014.34
2018-07-12T04:36:15.766Z,1014.28
2018-07-12T04:37:15.747Z,1014.25
2018-07-12T04:38:15.705Z,1014.31
2018-07-12T04:39:15.682Z,1014.28
2018-07-12T04:40:15.669Z,1014.29
2018-07-12T04:41:15.653Z,1014.33
2018-07-12T04:42:15.625Z,1014.33
2018-07-12T04:43:15.620Z,1014.32
2018-07-12T04:44:15.638Z,1014.32
2018-07-12T04:45:15.586Z,1014.31
2018-07-12T04:46:15.575Z,1014.30
2018-07-12T04:47:15.564Z,1014.32
2018-07-12T04:48:15.578Z,1014.36
2018-07-12T04:49:15.547Z,1014.32
2018-07-12T04:50:15.535Z,1014.30
2018-07-12T04:51:15.576Z,1014.28
2018-07-12T04:52:15.537Z,1014.33
2018-07-12T04:53:15.500Z,1014.33
2018-07-12T04:54:15.490Z,1014.30
2018-07-12T04:55:15.489Z,1014.36
2018-07-12T04:56:15.441Z,1014.35
2018-07-12T04:57:15.433Z,1014.37
2018-07-12T04:58:15.428Z,1014.37
2018-07-12T04:59:15.457Z,1014.43
2018-07-12T05:00:15.397Z,1014.41
2018-07-12T05:01:15.438Z,1014.41
2018-07-12T05:02:15.381Z,1014.42
2018-07-12T05:03:15.423Z,1014.43
2018-07-12T05:04:15.360Z,1014.44
2018-07-12T05:05:15.364Z,1014.43
2018-07-12T05:06:15.314Z,1014.44
2018-07-12T05:07:15.310Z,1014.45
2018-07-12T05:08:15.412Z,1014.44
2018-07-12T05:09:15.275Z,1014.49
2018-07-12T05:10:15.268Z,1014.47
2018-07-12T05:11:15.276Z,1014.51
2018-07-12T05:12:15.235Z,1014.50
2018-07-12T05:13:15.224Z,1014.48
2018-07-12T05:14:15.215Z,1014.50
2018-07-12T05:15:15.195Z,1014.54
2018-07-12T05:16:15.248Z,1014.54
2018-07-12T05:17:15.169Z,1014.53
2018-07-12T05:18:15.163Z,1014.51
2018-07-12T05:19:15.145Z,1014.49
2018-07-12T05:20:15.132Z,1014.49
2018-07-12T05:21:17.029Z,1014.48
2018-07-12T05:22:15.109Z,1014.50
2018-07-12T05:23:15.094Z,1014.48
2018-07-12T05:24:15.078Z,1014.49
2018-07-12T05:25:15.074Z,1014.46
2018-07-12T05:26:15.071Z,1014.46
2018-07-12T05:27:15.045Z,1014.47
2018-07-12T05:28:15.030Z,1014.50
2018-07-12T05:29:15.018Z,1014.50
2018-07-12T05:30:15.003Z,1014.51
2018-07-12T05:31:15.023Z,1014.48
2018-07-12T05:32:14.980Z,1014.55
2018-07-12T05:33:14.965Z,1014.54
2018-07-12T05:34:14.956Z,1014.54
2018-07-12T05:35:14.944Z,1014.51
2018-07-12T05:36:14.924Z,1014.51
2018-07-12T05:37:14.943Z,1014.54
2018-07-12T05:38:14.903Z,1014.51
2018-07-12T05:39:14.910Z,1014.50
2018-07-12T05:40:14.878Z,1014.47
2018-07-12T05:41:14.870Z,1014.52
2018-07-12T05:42:14.868Z,1014.48
2018-07-12T05:43:14.841Z,1014.52
2018-07-12T05:44:14.828Z,1014.49
2018-07-12T05:45:14.821Z,1014.56
2018-07-12T05:46:14.806Z,1014.51
2018-07-12T05:47:14.816Z,1014.54
2018-07-12T05:48:14.788Z,1014.55
2018-07-12T05:49:14.764Z,1014.54
2018-07-12T05:50:14.749Z,1014.54
2018-07-12T05:51:14.739Z,1014.53
2018-07-12T05:52:14.725Z,1014.55
2018-07-12T05:53:14.738Z,1014.54
2018-07-12T05:54:14.701Z,1014.58
2018-07-12T05:55:14.685Z,1014.57
2018-07-12T05:56:14.676Z,1014.59
2018-07-12T05:57:14.661Z,1014.62
2018-07-12T05:58:14.670Z,1014.67
2018-07-12T05:59:14.637Z,1014.66
2018-07-12T06:00:14.621Z,1014.64
2018-07-12T06:01:14.606Z,1014.70
2018-07-12T06:02:14.602Z,1014.70
2018-07-12T06:03:14.588Z,1014.70
2018-07-12T06:04:14.587Z,1014.74
2018-07-12T06:05:14.567Z,1014.69
2018-07-12T06:06:14.545Z,1014.73
2018-07-12T06:07:14.542Z,1014.76
2018-07-12T06:08:14.524Z,1014.71
2018-07-12T06:09:14.512Z,1014.73
2018-07-12T06:10:14.519Z,1014.74
2018-07-12T06:11:14.491Z,1014.74
2018-07-12T06:12:14.473Z,1014.77
2018-07-12T06:13:14.528Z,1014.77
2018-07-12T06:14:14.446Z,1014.79
2018-07-12T06:15:14.454Z,1014.79
2018-07-12T06:16:14.424Z,1014.83
2018-07-12T06:17:14.412Z,1014.85
2018-07-12T06:18:14.402Z,1014.88
2018-07-12T06:19:14.392Z,1014.88
2018-07-12T06:20:14.407Z,1014.87
2018-07-12T06:21:14.370Z,1014.88
2018-07-12T06:22:14.348Z,1014.90
2018-07-12T06:23:14.338Z,1014.88
2018-07-12T06:24:14.331Z,1014.88
2018-07-12T06:25:14.313Z,1014.89
2018-07-12T06:26:14.317Z,1014.84
2018-07-12T06:27:14.287Z,1014.86
2018-07-12T06:28:14.277Z,1014.90
2018-07-12T06:29:14.261Z,1014.82
2018-07-12T06:30:14.248Z,1014.86
2018-07-12T06:31:14.258Z,1014.84
2018-07-12T06:32:14.242Z,1014.88
2018-07-12T06:33:14.229Z,1014.91
2018-07-12T06:34:14.206Z,1014.94
2018-07-12T06:35:14.187Z,1014.93
2018-07-12T06:36:14.176Z,1014.95
2018-07-12T06:37:14.203Z,1014.99
2018-07-12T06:38:14.174Z,1015.00
2018-07-12T06:39:14.133Z,1015.00
2018-07-12T06:40:14.127Z,1015.03
2018-07-12T06:41:14.114Z,1015.05
2018-07-12T06:42:14.097Z,1015.02
2018-07-12T06:43:14.088Z,1015.05
2018-07-12T06:44:14.090Z,1015.06
2018-07-12T06:45:14.066Z,1015.10
2018-07-12T06:46:14.053Z,1015.10
2018-07-12T06:47:14.040Z,1015.09
2018-07-12T06:48:35.101Z,1015.15
2018-07-12T06:49:14.027Z,1015.12
2018-07-12T06:50:14.002Z,1015.13
2018-07-12T06:51:13.985Z,1015.16
2018-07-12T06:52:13.975Z,1015.12
2018-07-12T06:53:13.980Z,1015.13
2018-07-12T06:54:13.990Z,1015.13
2018-07-12T06:55:13.945Z,1015.13
2018-07-12T06:56:13.929Z,1015.15
2018-07-12T06:57:13.911Z,1015.16
2018-07-12T06:58:13.905Z,1015.20
2018-07-12T06:59:13.885Z,1015.18
2018-07-12T07:00:13.897Z,1015.21
2018-07-12T07:01:13.871Z,1015.23
2018-07-12T07:02:13.847Z,1015.27
2018-07-12T07:03:13.837Z,1015.27
2018-07-12T07:04:13.824Z,1015.27
2018-07-12T07:05:13.842Z,1015.27
2018-07-12T07:06:13.804Z,1015.29
2018-07-12T07:07:13.801Z,1015.33
2018-07-12T07:08:13.778Z,1015.34
2018-07-12T07:09:13.776Z,1015.32
2018-07-12T07:10:13.754Z,1015.33
2018-07-12T07:11:13.760Z,1015.34
2018-07-12T07:12:13.735Z,1015.31
2018-07-12T07:13:13.730Z,1015.34
2018-07-12T07:14:13.710Z,1015.36
2018-07-12T07:15:13.699Z,1015.36
2018-07-12T07:16:13.706Z,1015.34
2018-07-12T07:17:13.688Z,1015.31
2018-07-12T07:18:13.666Z,1015.31
2018-07-12T07:19:13.651Z,1015.30
2018-07-12T07:20:13.691Z,1015.25
2018-07-12T07:21:13.631Z,1015.29
2018-07-12T07:22:13.633Z,1015.31
2018-07-12T07:23:13.604Z,1015.35
2018-07-12T07:24:13.593Z,1015.36
2018-07-12T07:25:13.580Z,1015.38
2018-07-12T07:26:13.577Z,1015.35
2018-07-12T07:27:13.576Z,1015.36
2018-07-12T07:28:13.543Z,1015.42
2018-07-12T07:29:13.541Z,1015.39
2018-07-12T07:30:13.525Z,1015.41
2018-07-12T07:31:13.513Z,1015.47
2018-07-12T07:32:13.520Z,1015.44
2018-07-12T07:33:13.485Z,1015.38
2018-07-12T07:34:13.481Z,1015.41
2018-07-12T07:35:13.463Z,1015.42
2018-07-12T07:36:13.461Z,1015.45
2018-07-12T07:37:13.459Z,1015.46
2018-07-12T07:38:13.431Z,1015.47
2018-07-12T07:39:13.421Z,1015.46
2018-07-12T07:40:13.411Z,1015.46
2018-07-12T07:41:13.408Z,1015.46
2018-07-12T07:42:13.404Z,1015.44
2018-07-12T07:43:13.513Z,1015.46
2018-07-12T07:44:13.357Z,1015.48
2018-07-12T07:45:13.352Z,1015.47
2018-07-12T07:46:13.334Z,1015.48
2018-07-12T07:47:13.327Z,1015.49
2018-07-12T07:48:13.335Z,1015.51
2018-07-12T07:49:13.328Z,1015.52
2018-07-12T07:50:13.295Z,1015.51
2018-07-12T07:51:13.286Z,1015.47
2018-07-12T07:52:13.275Z,1015.50
2018-07-12T07:53:13.278Z,1015.50
2018-07-12T07:54:13.267Z,1015.51
2018-07-12T07:55:13.241Z,1015.53
2018-07-12T07:56:13.237Z,1015.53
2018-07-12T07:57:13.230Z,1015.52
2018-07-12T07:58:13.226Z,1015.57
2018-07-12T07:59:13.203Z,1015.59
2018-07-12T08:00:13.194Z,1015.62
2018-07-12T08:01:13.173Z,1015.63
2018-07-12T08:02:13.168Z,1015.66
2018-07-12T08:03:13.217Z,1015.64
2018-07-12T08:04:13.151Z,1015.64
2018-07-12T08:05:13.149Z,1015.69
2018-07-12T08:06:13.125Z,1015.69
2018-07-12T08:07:13.112Z,1015.70
2018-07-12T08:08:13.122Z,1015.70
2018-07-12T08:09:13.100Z,1015.71
2018-07-12T08:10:13.087Z,1015.73
2018-07-12T08:11:13.072Z,1015.69
2018-07-12T08:12:13.087Z,1015.68
2018-07-12T08:13:13.060Z,1015.68
2018-07-12T08:14:13.042Z,1015.64
2018-07-12T08:15:13.036Z,1015.65
2018-07-12T08:16:13.074Z,1015.64
2018-07-12T08:17:13.027Z,1015.64
2018-07-12T08:18:12.994Z,1015.70
2018-07-12T08:19:12.988Z,1015.67
2018-07-12T08:20:12.976Z,1015.66
2018-07-12T08:21:13.085Z,1015.67
2018-07-12T08:22:12.973Z,1015.66
2018-07-12T08:23:12.949Z,1015.67
2018-07-12T08:24:12.947Z,1015.69
2018-07-12T08:25:12.942Z,1015.72
2018-07-12T08:26:12.914Z,1015.68
2018-07-12T08:27:12.920Z,1015.72
2018-07-12T08:28:12.895Z,1015.72
2018-07-12T08:29:12.884Z,1015.75
2018-07-12T08:30:12.875Z,1015.72
2018-07-12T08:31:12.878Z,1015.72
2018-07-12T08:32:12.870Z,1015.72
2018-07-12T08:33:12.894Z,1015.68
2018-07-12T08:34:12.847Z,1015.70
2018-07-12T08:35:12.840Z,1015.69
2018-07-12T08:36:12.829Z,1015.72
2018-07-12T08:37:12.804Z,1015.67
2018-07-12T08:38:12.789Z,1015.74
2018-07-12T08:39:12.780Z,1015.68
2018-07-12T08:40:12.766Z,1015.71
2018-07-12T08:41:12.776Z,1015.69
2018-07-12T08:42:12.759Z,1015.70
2018-07-12T08:43:12.738Z,1015.72
2018-07-12T08:44:12.725Z,1015.70
2018-07-12T08:45:12.722Z,1015.68
2018-07-12T08:46:12.775Z,1015.64
2018-07-12T08:47:12.700Z,1015.66
2018-07-12T08:48:12.689Z,1015.70
2018-07-12T08:49:12.683Z,1015.71
2018-07-12T08:50:12.667Z,1015.71
2018-07-12T08:51:12.672Z,1015.70
2018-07-12T08:52:12.652Z,1015.69
2018-07-12T08:53:12.686Z,1015.69
2018-07-12T08:54:12.626Z,1015.73
2018-07-12T08:55:12.613Z,1016.67
2018-07-12T08:56:12.629Z,1015.72
2018-07-12T08:57:12.616Z,1015.69
2018-07-12T08:58:12.589Z,1015.74
2018-07-12T08:59:12.579Z,1015.72
2018-07-12T09:00:12.561Z,1015.80
2018-07-12T09:01:12.556Z,1015.79
2018-07-12T09:02:12.564Z,1015.78
2018-07-12T09:03:12.533Z,1015.83
2018-07-12T09:04:12.534Z,1016.00
2018-07-12T09:05:12.517Z,1015.89
2018-07-12T09:06:12.503Z,1015.84
2018-07-12T09:07:12.512Z,1015.79
2018-07-12T09:08:12.484Z,1015.84
2018-07-12T09:09:12.475Z,1015.87
2018-07-12T09:10:12.465Z,1015.85
2018-07-12T09:11:12.455Z,1015.91
2018-07-12T09:12:12.464Z,1015.89
2018-07-12T09:13:12.438Z,1015.90
2018-07-12T09:14:12.424Z,1016.01
2018-07-12T09:15:12.413Z,1016.11
2018-07-12T09:16:12.406Z,1016.08
2018-07-12T09:17:12.397Z,1015.95
2018-07-12T09:18:33.403Z,1016.01
2018-07-12T09:19:12.370Z,1016.03
2018-07-12T09:20:12.361Z,1016.09
2018-07-12T09:21:12.355Z,1016.14
2018-07-12T09:22:12.355Z,1015.85
2018-07-12T09:23:12.342Z,1016.04
2018-07-12T09:24:12.363Z,1016.20
2018-07-12T09:25:12.317Z,1016.28
2018-07-12T09:26:12.306Z,1016.17
2018-07-12T09:27:12.303Z,1016.14
2018-07-12T09:28:12.290Z,1015.89
2018-07-12T09:29:12.330Z,1016.22
2018-07-12T09:30:12.295Z,1016.13
2018-07-12T09:31:12.269Z,1016.37
2018-07-12T09:32:12.269Z,1016.39
2018-07-12T09:33:12.254Z,1016.30
2018-07-12T09:34:12.266Z,1016.36
2018-07-12T09:35:12.248Z,1016.38
2018-07-12T09:36:12.239Z,1016.18
2018-07-12T09:37:12.227Z,1015.94
2018-07-12T09:38:12.225Z,1015.88
2018-07-12T09:39:12.221Z,1015.89
2018-07-12T09:40:12.234Z,1015.88
2018-07-12T09:41:12.220Z,1015.89
2018-07-12T09:42:12.196Z,1015.88
2018-07-12T09:43:12.197Z,1015.88
2018-07-12T09:44:12.190Z,1015.87
2018-07-12T09:45:12.200Z,1016.30
2018-07-12T09:46:12.172Z,1016.20
2018-07-12T09:47:12.228Z,1016.23
2018-07-12T09:48:12.165Z,1016.28
2018-07-12T09:49:12.306Z,1016.26
2018-07-12T09:50:12.172Z,1016.26
2018-07-12T09:51:12.146Z,1016.26
2018-07-12T09:52:12.139Z,1016.24
2018-07-12T09:53:12.139Z,1016.03
2018-07-12T09:54:12.143Z,1015.90
2018-07-12T09:55:12.124Z,1015.90
2018-07-12T09:56:12.232Z,1015.87
2018-07-12T09:57:12.121Z,1015.86
2018-07-12T09:58:12.109Z,1015.87
2018-07-12T09:59:12.123Z,1015.91
2018-07-12T10:00:12.102Z,1016.15
2018-07-12T10:01:12.141Z,1016.11
2018-07-12T10:02:12.092Z,1016.16
2018-07-12T10:03:12.086Z,1016.15
2018-07-12T10:04:12.077Z,1016.15
2018-07-12T10:05:12.078Z,1016.06
2018-07-12T10:06:12.082Z,1015.90
2018-07-12T10:07:12.069Z,1016.21
2018-07-12T10:08:12.061Z,1016.19
2018-07-12T10:09:12.060Z,1016.21
2018-07-12T10:10:12.063Z,1016.06
2018-07-12T10:11:12.065Z,1016.33
2018-07-12T10:12:12.044Z,1016.10
2018-07-12T10:13:12.037Z,1016.01
2018-07-12T10:14:12.042Z,1015.89
2018-07-12T10:15:12.031Z,1015.91
2018-07-12T10:16:12.093Z,1015.95
2018-07-12T10:17:12.025Z,1015.93
2018-07-12T10:18:12.019Z,1015.88
2018-07-12T10:19:12.014Z,1015.94
2018-07-12T10:20:12.012Z,1016.29
2018-07-12T10:21:12.012Z,1016.24
2018-07-12T10:22:12.020Z,1016.19
2018-07-12T10:23:11.999Z,1015.91
2018-07-12T10:24:11.991Z,1015.97
2018-07-12T10:25:11.983Z,1015.95
2018-07-12T10:26:12.004Z,1016.29
2018-07-12T10:27:11.995Z,1016.23
2018-07-12T10:28:11.975Z,1016.24
2018-07-12T10:29:11.983Z,1016.25
2018-07-12T10:30:11.966Z,1016.31
2018-07-12T10:31:11.971Z,1016.26
2018-07-12T10:32:11.967Z,1016.23
2018-07-12T10:33:11.972Z,1016.32
2018-07-12T10:34:11.968Z,1016.27
2018-07-12T10:35:11.942Z,1016.26
2018-07-12T10:36:11.949Z,1016.34
2018-07-12T10:37:11.945Z,1016.29
2018-07-12T10:38:11.933Z,1016.29
2018-07-12T10:39:11.954Z,1016.25
2018-07-12T10:40:11.940Z,1016.22
2018-07-12T10:41:11.947Z,1016.23
2018-07-12T10:42:11.936Z,1016.23
2018-07-12T10:43:11.948Z,1016.22
2018-07-12T10:44:11.933Z,1016.21
2018-07-12T10:45:11.933Z,1015.94
2018-07-12T10:46:11.945Z,1015.94
2018-07-12T10:47:11.935Z,1016.24
2018-07-12T10:48:11.930Z,1016.21
2018-07-12T10:49:11.927Z,1016.23
2018-07-12T10:50:11.925Z,1016.21
2018-07-12T10:51:11.936Z,1016.23
2018-07-12T10:52:11.919Z,1015.97
2018-07-12T10:53:11.927Z,1015.88
2018-07-12T10:54:11.921Z,1015.91
2018-07-12T10:55:11.924Z,1016.10
2018-07-12T10:56:11.933Z,1015.95
2018-07-12T10:57:11.936Z,1015.84
2018-07-12T10:58:11.916Z,1016.05
2018-07-12T10:59:11.919Z,1016.14
2018-07-12T11:00:11.919Z,1016.08
2018-07-12T11:01:11.908Z,1016.10
2018-07-12T11:02:11.924Z,1016.13
2018-07-12T11:03:11.910Z,1016.14
2018-07-12T11:04:11.907Z,1016.16
2018-07-12T11:05:11.910Z,1016.15
2018-07-12T11:06:11.900Z,1016.14
2018-07-12T11:07:11.904Z,1016.10
2018-07-12T11:08:11.914Z,1016.11
2018-07-12T11:09:11.987Z,1016.08
2018-07-12T11:10:11.895Z,1016.05
2018-07-12T11:11:11.897Z,1016.09
2018-07-12T11:12:11.900Z,1016.05
2018-07-12T11:13:11.915Z,1016.03
2018-07-12T11:14:11.897Z,1016.05
2018-07-12T11:15:11.899Z,1016.07
2018-07-12T11:16:11.895Z,1015.76
2018-07-12T11:17:11.913Z,1015.84
2018-07-12T11:18:11.897Z,1015.79
2018-07-12T11:19:11.916Z,1015.76
2018-07-12T11:20:11.895Z,1015.81
2018-07-12T11:21:11.946Z,1015.79
2018-07-12T11:22:11.891Z,1015.78
2018-07-12T11:23:11.894Z,1015.99
2018-07-12T11:24:11.920Z,1015.75
2018-07-12T11:25:11.895Z,1015.73
2018-07-12T11:26:11.901Z,1015.98
2018-07-12T11:27:11.892Z,1016.02
2018-07-12T11:28:11.940Z,1015.95
2018-07-12T11:29:11.886Z,1015.96
2018-07-12T11:30:11.946Z,1015.96
2018-07-12T11:31:11.882Z,1015.98
2018-07-12T11:32:11.879Z,1015.77
2018-07-12T11:33:11.880Z,1015.95
2018-07-12T11:34:11.894Z,1015.96
2018-07-12T11:35:11.876Z,1015.93
2018-07-12T11:36:11.912Z,1015.97
2018-07-12T11:37:11.873Z,1016.01
2018-07-12T11:38:11.873Z,1015.86
2018-07-12T11:39:11.874Z,1015.98
2018-07-12T11:40:11.904Z,1015.72
2018-07-12T11:41:11.867Z,1015.67
2018-07-12T11:42:11.875Z,1015.68
2018-07-12T11:43:11.872Z,1015.72
2018-07-12T11:44:11.864Z,1015.67
2018-07-12T11:45:11.869Z,1015.68
2018-07-12T11:46:12.652Z,1015.70
2018-07-12T11:47:11.862Z,1015.70
2018-07-12T11:48:11.869Z,1015.92
2018-07-12T11:49:11.856Z,1015.93
2018-07-12T11:50:11.872Z,1015.85
2018-07-12T11:51:11.856Z,1015.89
2018-07-12T11:52:11.853Z,1015.92
2018-07-12T11:53:11.851Z,1015.88
2018-07-12T11:54:11.850Z,1015.68
2018-07-12T11:55:11.867Z,1015.65
2018-07-12T11:56:11.845Z,1015.64
2018-07-12T11:57:11.837Z,1015.87
2018-07-12T11:58:11.839Z,1015.81
2018-07-12T11:59:11.838Z,1015.87
2018-07-12T12:00:11.838Z,1015.84
2018-07-12T12:01:11.847Z,1015.87
2018-07-12T12:02:11.832Z,1015.88
2018-07-12T12:03:11.844Z,1015.85
2018-07-12T12:04:11.826Z,1015.85
2018-07-12T12:05:11.835Z,1015.83